sensor_id;sensor_type;location;lat;lon;timestamp;P1;durP1;ratioP1;P2;durP2;ratioP2
4232;SDS011;2130;48.472;11.934;2023-08-31T00:00:08;2.67;;;1.20;;
4232;SDS011;2130;48.472;11.934;2023-08-31T00:02:38;2.90;;;1.43;;
4232;SDS011;2130;48.472;11.934;2023-08-31T00:05:08;2.83;;;1.30;;
4232;SDS011;2130;48.472;11.934;2023-08-31T00:07:37;2.37;;;1.30;;
4232;SDS011;2130;48.472;11.934;2023-08-31T00:10:06;2.43;;;1.60;;
4232;SDS011;2130;48.472;11.934;2023-08-31T00:12:40;2.40;;;1.33;;
4232;SDS011;2130;48.472;11.934;2023-08-31T00:15:09;2.63;;;1.30;;
4232;SDS011;2130;48.472;11.934;2023-08-31T00:17:38;8.53;;;1.70;;
4232;SDS011;2130;48.472;11.934;2023-08-31T00:20:07;2.47;;;1.20;;
4232;SDS011;2130;48.472;11.934;2023-08-31T00:22:38;3.07;;;1.70;;
4232;SDS011;2130;48.472;11.934;2023-08-31T00:25:07;2.20;;;1.13;;
4232;SDS011;2130;48.472;11.934;2023-08-31T00:27:36;2.20;;;1.37;;
4232;SDS011;2130;48.472;11.934;2023-08-31T00:30:07;2.33;;;1.23;;
4232;SDS011;2130;48.472;11.934;2023-08-31T00:32:36;2.53;;;1.13;;
4232;SDS011;2130;48.472;11.934;2023-08-31T00:35:06;2.43;;;1.17;;
4232;SDS011;2130;48.472;11.934;2023-08-31T00:37:36;2.47;;;1.20;;
4232;SDS011;2130;48.472;11.934;2023-08-31T00:40:06;2.87;;;1.40;;
4232;SDS011;2130;48.472;11.934;2023-08-31T00:42:36;2.60;;;1.47;;
4232;SDS011;2130;48.472;11.934;2023-08-31T00:45:07;3.33;;;1.50;;
4232;SDS011;2130;48.472;11.934;2023-08-31T00:47:37;4.77;;;1.40;;
4232;SDS011;2130;48.472;11.934;2023-08-31T00:50:06;2.70;;;1.40;;
4232;SDS011;2130;48.472;11.934;2023-08-31T00:52:36;2.60;;;1.13;;
4232;SDS011;2130;48.472;11.934;2023-08-31T00:55:05;2.20;;;1.13;;
4232;SDS011;2130;48.472;11.934;2023-08-31T00:57:35;2.50;;;1.30;;
4232;SDS011;2130;48.472;11.934;2023-08-31T01:00:04;2.83;;;1.47;;
4232;SDS011;2130;48.472;11.934;2023-08-31T01:02:38;3.40;;;1.53;;
4232;SDS011;2130;48.472;11.934;2023-08-31T01:05:20;2.70;;;1.13;;
4232;SDS011;2130;48.472;11.934;2023-08-31T01:07:56;2.47;;;1.10;;
4232;SDS011;2130;48.472;11.934;2023-08-31T01:10:36;4.63;;;1.43;;
4232;SDS011;2130;48.472;11.934;2023-08-31T01:13:14;2.67;;;1.20;;
4232;SDS011;2130;48.472;11.934;2023-08-31T01:15:45;2.83;;;1.30;;
4232;SDS011;2130;48.472;11.934;2023-08-31T01:18:15;3.23;;;1.60;;
4232;SDS011;2130;48.472;11.934;2023-08-31T01:20:48;2.37;;;1.30;;
4232;SDS011;2130;48.472;11.934;2023-08-31T01:23:20;3.03;;;1.37;;
4232;SDS011;2130;48.472;11.934;2023-08-31T01:25:51;2.60;;;1.30;;
4232;SDS011;2130;48.472;11.934;2023-08-31T01:28:22;2.47;;;1.30;;
4232;SDS011;2130;48.472;11.934;2023-08-31T01:30:50;3.00;;;1.40;;
4232;SDS011;2130;48.472;11.934;2023-08-31T01:33:19;2.63;;;1.40;;
4232;SDS011;2130;48.472;11.934;2023-08-31T01:35:49;2.63;;;1.43;;
4232;SDS011;2130;48.472;11.934;2023-08-31T01:38:22;3.00;;;1.60;;
4232;SDS011;2130;48.472;11.934;2023-08-31T01:40:56;2.47;;;1.30;;
4232;SDS011;2130;48.472;11.934;2023-08-31T01:43:30;2.60;;;1.13;;
4232;SDS011;2130;48.472;11.934;2023-08-31T01:46:00;2.93;;;1.30;;
4232;SDS011;2130;48.472;11.934;2023-08-31T01:48:37;2.60;;;1.30;;
4232;SDS011;2130;48.472;11.934;2023-08-31T01:51:06;2.47;;;1.40;;
4232;SDS011;2130;48.472;11.934;2023-08-31T01:53:36;3.63;;;1.80;;
4232;SDS011;2130;48.472;11.934;2023-08-31T01:56:06;2.20;;;1.20;;
4232;SDS011;2130;48.472;11.934;2023-08-31T01:58:36;2.60;;;1.40;;
4232;SDS011;2130;48.472;11.934;2023-08-31T02:01:05;2.83;;;1.47;;
4232;SDS011;2130;48.472;11.934;2023-08-31T02:03:34;2.50;;;1.50;;
4232;SDS011;2130;48.472;11.934;2023-08-31T02:06:02;2.00;;;1.10;;
4232;SDS011;2130;48.472;11.934;2023-08-31T02:08:32;2.13;;;1.10;;
4232;SDS011;2130;48.472;11.934;2023-08-31T02:11:00;8.07;;;1.60;;
4232;SDS011;2130;48.472;11.934;2023-08-31T02:13:31;2.70;;;1.40;;
4232;SDS011;2130;48.472;11.934;2023-08-31T02:16:00;2.53;;;1.10;;
4232;SDS011;2130;48.472;11.934;2023-08-31T02:18:28;2.40;;;1.30;;
4232;SDS011;2130;48.472;11.934;2023-08-31T02:20:57;2.10;;;1.30;;
4232;SDS011;2130;48.472;11.934;2023-08-31T02:23:26;2.40;;;1.50;;
4232;SDS011;2130;48.472;11.934;2023-08-31T02:25:55;3.43;;;1.37;;
4232;SDS011;2130;48.472;11.934;2023-08-31T02:28:23;2.93;;;1.60;;
4232;SDS011;2130;48.472;11.934;2023-08-31T02:30:58;4.03;;;1.70;;
4232;SDS011;2130;48.472;11.934;2023-08-31T02:33:30;2.97;;;1.27;;
4232;SDS011;2130;48.472;11.934;2023-08-31T02:36:00;2.43;;;1.47;;
4232;SDS011;2130;48.472;11.934;2023-08-31T02:38:29;2.20;;;1.10;;
4232;SDS011;2130;48.472;11.934;2023-08-31T02:40:57;3.00;;;1.40;;
4232;SDS011;2130;48.472;11.934;2023-08-31T02:43:26;2.70;;;1.40;;
4232;SDS011;2130;48.472;11.934;2023-08-31T02:46:02;3.27;;;1.70;;
4232;SDS011;2130;48.472;11.934;2023-08-31T02:48:32;3.87;;;1.87;;
4232;SDS011;2130;48.472;11.934;2023-08-31T02:51:01;2.67;;;1.50;;
4232;SDS011;2130;48.472;11.934;2023-08-31T02:53:30;3.10;;;1.40;;
4232;SDS011;2130;48.472;11.934;2023-08-31T02:55:59;3.07;;;1.73;;
4232;SDS011;2130;48.472;11.934;2023-08-31T02:58:29;2.13;;;1.17;;
4232;SDS011;2130;48.472;11.934;2023-08-31T03:01:07;2.67;;;1.50;;
4232;SDS011;2130;48.472;11.934;2023-08-31T03:03:41;3.00;;;1.43;;
4232;SDS011;2130;48.472;11.934;2023-08-31T03:06:13;3.40;;;1.70;;
4232;SDS011;2130;48.472;11.934;2023-08-31T03:08:42;3.10;;;1.70;;
4232;SDS011;2130;48.472;11.934;2023-08-31T03:11:12;2.90;;;1.40;;
4232;SDS011;2130;48.472;11.934;2023-08-31T03:13:43;2.50;;;1.27;;
4232;SDS011;2130;48.472;11.934;2023-08-31T03:16:13;2.83;;;1.30;;
4232;SDS011;2130;48.472;11.934;2023-08-31T03:18:42;3.30;;;1.70;;
4232;SDS011;2130;48.472;11.934;2023-08-31T03:21:12;2.70;;;1.50;;
4232;SDS011;2130;48.472;11.934;2023-08-31T03:23:40;2.47;;;1.40;;
4232;SDS011;2130;48.472;11.934;2023-08-31T03:26:09;2.60;;;1.30;;
4232;SDS011;2130;48.472;11.934;2023-08-31T03:28:38;4.50;;;1.33;;
4232;SDS011;2130;48.472;11.934;2023-08-31T03:31:08;2.77;;;1.63;;
4232;SDS011;2130;48.472;11.934;2023-08-31T03:33:38;3.10;;;1.70;;
4232;SDS011;2130;48.472;11.934;2023-08-31T03:36:08;3.83;;;1.43;;
4232;SDS011;2130;48.472;11.934;2023-08-31T03:38:37;2.40;;;1.53;;
4232;SDS011;2130;48.472;11.934;2023-08-31T03:41:07;2.73;;;1.47;;
4232;SDS011;2130;48.472;11.934;2023-08-31T03:43:36;2.77;;;1.37;;
4232;SDS011;2130;48.472;11.934;2023-08-31T03:46:05;3.17;;;1.50;;
4232;SDS011;2130;48.472;11.934;2023-08-31T03:48:34;2.80;;;1.43;;
4232;SDS011;2130;48.472;11.934;2023-08-31T03:51:06;2.37;;;1.20;;
4232;SDS011;2130;48.472;11.934;2023-08-31T03:53:35;2.70;;;1.20;;
4232;SDS011;2130;48.472;11.934;2023-08-31T03:56:04;2.57;;;1.30;;
4232;SDS011;2130;48.472;11.934;2023-08-31T03:58:33;2.60;;;1.43;;
4232;SDS011;2130;48.472;11.934;2023-08-31T04:01:01;2.43;;;1.30;;
4232;SDS011;2130;48.472;11.934;2023-08-31T04:03:32;3.20;;;1.57;;
4232;SDS011;2130;48.472;11.934;2023-08-31T04:06:02;3.47;;;1.40;;
4232;SDS011;2130;48.472;11.934;2023-08-31T04:08:33;2.93;;;1.50;;
4232;SDS011;2130;48.472;11.934;2023-08-31T04:11:03;2.07;;;1.20;;
4232;SDS011;2130;48.472;11.934;2023-08-31T04:13:32;2.40;;;1.23;;
4232;SDS011;2130;48.472;11.934;2023-08-31T04:16:01;4.10;;;1.30;;
4232;SDS011;2130;48.472;11.934;2023-08-31T04:18:30;2.93;;;1.33;;
4232;SDS011;2130;48.472;11.934;2023-08-31T04:20:59;2.77;;;1.43;;
4232;SDS011;2130;48.472;11.934;2023-08-31T04:23:31;5.33;;;1.70;;
4232;SDS011;2130;48.472;11.934;2023-08-31T04:26:02;3.07;;;1.40;;
4232;SDS011;2130;48.472;11.934;2023-08-31T04:28:39;4.10;;;1.67;;
4232;SDS011;2130;48.472;11.934;2023-08-31T04:31:09;3.40;;;1.80;;
4232;SDS011;2130;48.472;11.934;2023-08-31T04:33:38;2.80;;;1.20;;
4232;SDS011;2130;48.472;11.934;2023-08-31T04:36:07;2.80;;;1.40;;
4232;SDS011;2130;48.472;11.934;2023-08-31T04:38:37;2.77;;;1.50;;
4232;SDS011;2130;48.472;11.934;2023-08-31T04:41:08;3.17;;;1.30;;
4232;SDS011;2130;48.472;11.934;2023-08-31T04:43:36;2.27;;;1.13;;
4232;SDS011;2130;48.472;11.934;2023-08-31T04:46:06;5.40;;;1.60;;
4232;SDS011;2130;48.472;11.934;2023-08-31T04:48:35;2.83;;;1.37;;
4232;SDS011;2130;48.472;11.934;2023-08-31T04:51:04;3.27;;;1.33;;
4232;SDS011;2130;48.472;11.934;2023-08-31T04:53:33;2.90;;;1.33;;
4232;SDS011;2130;48.472;11.934;2023-08-31T04:56:03;2.30;;;1.30;;
4232;SDS011;2130;48.472;11.934;2023-08-31T04:58:33;2.37;;;1.07;;
4232;SDS011;2130;48.472;11.934;2023-08-31T05:01:02;2.90;;;1.50;;
4232;SDS011;2130;48.472;11.934;2023-08-31T05:03:31;2.20;;;1.20;;
4232;SDS011;2130;48.472;11.934;2023-08-31T05:06:00;2.57;;;1.37;;
4232;SDS011;2130;48.472;11.934;2023-08-31T05:08:31;2.60;;;1.33;;
4232;SDS011;2130;48.472;11.934;2023-08-31T05:11:00;2.33;;;1.23;;
4232;SDS011;2130;48.472;11.934;2023-08-31T05:13:30;3.87;;;1.10;;
4232;SDS011;2130;48.472;11.934;2023-08-31T05:16:01;3.10;;;1.40;;
4232;SDS011;2130;48.472;11.934;2023-08-31T05:18:30;2.33;;;1.37;;
4232;SDS011;2130;48.472;11.934;2023-08-31T05:20:59;2.73;;;1.30;;
4232;SDS011;2130;48.472;11.934;2023-08-31T05:23:28;2.17;;;1.07;;
4232;SDS011;2130;48.472;11.934;2023-08-31T05:25:57;2.40;;;1.20;;
4232;SDS011;2130;48.472;11.934;2023-08-31T05:28:26;3.17;;;1.20;;
4232;SDS011;2130;48.472;11.934;2023-08-31T05:30:56;3.10;;;1.20;;
4232;SDS011;2130;48.472;11.934;2023-08-31T05:33:27;2.93;;;1.47;;
4232;SDS011;2130;48.472;11.934;2023-08-31T05:36:01;2.40;;;1.30;;
4232;SDS011;2130;48.472;11.934;2023-08-31T05:38:31;2.63;;;1.50;;
4232;SDS011;2130;48.472;11.934;2023-08-31T05:41:04;3.13;;;1.53;;
4232;SDS011;2130;48.472;11.934;2023-08-31T05:43:34;3.60;;;1.73;;
4232;SDS011;2130;48.472;11.934;2023-08-31T05:46:02;2.87;;;1.47;;
4232;SDS011;2130;48.472;11.934;2023-08-31T05:48:33;2.30;;;1.53;;
4232;SDS011;2130;48.472;11.934;2023-08-31T05:51:02;2.77;;;1.57;;
4232;SDS011;2130;48.472;11.934;2023-08-31T05:53:31;2.73;;;1.30;;
4232;SDS011;2130;48.472;11.934;2023-08-31T05:56:00;3.13;;;1.50;;
4232;SDS011;2130;48.472;11.934;2023-08-31T05:58:32;3.23;;;1.47;;
4232;SDS011;2130;48.472;11.934;2023-08-31T06:01:02;3.43;;;1.50;;
4232;SDS011;2130;48.472;11.934;2023-08-31T06:03:32;3.30;;;1.53;;
4232;SDS011;2130;48.472;11.934;2023-08-31T06:06:01;2.60;;;1.30;;
4232;SDS011;2130;48.472;11.934;2023-08-31T06:08:30;2.67;;;1.47;;
4232;SDS011;2130;48.472;11.934;2023-08-31T06:10:59;3.27;;;1.70;;
4232;SDS011;2130;48.472;11.934;2023-08-31T06:13:28;2.77;;;1.50;;
4232;SDS011;2130;48.472;11.934;2023-08-31T06:15:56;3.50;;;1.83;;
4232;SDS011;2130;48.472;11.934;2023-08-31T06:18:27;2.97;;;1.67;;
4232;SDS011;2130;48.472;11.934;2023-08-31T06:20:57;2.47;;;1.33;;
4232;SDS011;2130;48.472;11.934;2023-08-31T06:23:26;2.97;;;1.63;;
4232;SDS011;2130;48.472;11.934;2023-08-31T06:25:54;3.10;;;1.63;;
4232;SDS011;2130;48.472;11.934;2023-08-31T06:28:23;3.20;;;1.40;;
4232;SDS011;2130;48.472;11.934;2023-08-31T06:30:52;3.13;;;1.63;;
4232;SDS011;2130;48.472;11.934;2023-08-31T06:33:21;3.07;;;1.70;;
4232;SDS011;2130;48.472;11.934;2023-08-31T06:35:50;3.70;;;2.00;;
4232;SDS011;2130;48.472;11.934;2023-08-31T06:38:20;3.40;;;1.97;;
4232;SDS011;2130;48.472;11.934;2023-08-31T06:40:49;3.17;;;1.53;;
4232;SDS011;2130;48.472;11.934;2023-08-31T06:43:18;3.20;;;1.73;;
4232;SDS011;2130;48.472;11.934;2023-08-31T06:45:47;2.93;;;1.30;;
4232;SDS011;2130;48.472;11.934;2023-08-31T06:48:16;2.60;;;1.17;;
4232;SDS011;2130;48.472;11.934;2023-08-31T06:50:46;2.97;;;1.30;;
4232;SDS011;2130;48.472;11.934;2023-08-31T06:53:15;2.33;;;1.30;;
4232;SDS011;2130;48.472;11.934;2023-08-31T06:55:45;3.80;;;1.40;;
4232;SDS011;2130;48.472;11.934;2023-08-31T06:58:14;3.57;;;1.77;;
4232;SDS011;2130;48.472;11.934;2023-08-31T07:00:43;3.37;;;1.50;;
4232;SDS011;2130;48.472;11.934;2023-08-31T07:03:12;2.33;;;1.13;;
4232;SDS011;2130;48.472;11.934;2023-08-31T07:05:42;2.77;;;1.47;;
4232;SDS011;2130;48.472;11.934;2023-08-31T07:08:11;2.30;;;1.30;;
4232;SDS011;2130;48.472;11.934;2023-08-31T07:10:40;2.90;;;1.37;;
4232;SDS011;2130;48.472;11.934;2023-08-31T07:13:10;2.63;;;1.30;;
4232;SDS011;2130;48.472;11.934;2023-08-31T07:15:40;3.07;;;1.30;;
4232;SDS011;2130;48.472;11.934;2023-08-31T07:18:09;2.90;;;1.23;;
4232;SDS011;2130;48.472;11.934;2023-08-31T07:20:37;2.60;;;1.27;;
4232;SDS011;2130;48.472;11.934;2023-08-31T07:23:06;2.13;;;1.17;;
4232;SDS011;2130;48.472;11.934;2023-08-31T07:25:36;2.97;;;1.53;;
4232;SDS011;2130;48.472;11.934;2023-08-31T07:28:05;2.93;;;1.53;;
4232;SDS011;2130;48.472;11.934;2023-08-31T07:30:35;2.40;;;1.23;;
4232;SDS011;2130;48.472;11.934;2023-08-31T07:33:05;2.27;;;1.10;;
4232;SDS011;2130;48.472;11.934;2023-08-31T07:35:54;3.13;;;1.43;;
4232;SDS011;2130;48.472;11.934;2023-08-31T07:38:25;3.07;;;1.30;;
4232;SDS011;2130;48.472;11.934;2023-08-31T07:40:54;2.60;;;1.10;;
4232;SDS011;2130;48.472;11.934;2023-08-31T07:43:23;2.50;;;1.37;;
4232;SDS011;2130;48.472;11.934;2023-08-31T07:45:53;1.97;;;1.23;;
4232;SDS011;2130;48.472;11.934;2023-08-31T07:48:23;2.43;;;1.30;;
4232;SDS011;2130;48.472;11.934;2023-08-31T07:50:51;3.30;;;1.17;;
4232;SDS011;2130;48.472;11.934;2023-08-31T07:53:20;3.40;;;1.33;;
4232;SDS011;2130;48.472;11.934;2023-08-31T07:55:52;2.70;;;1.50;;
4232;SDS011;2130;48.472;11.934;2023-08-31T07:58:23;3.20;;;1.13;;
4232;SDS011;2130;48.472;11.934;2023-08-31T08:00:54;2.10;;;1.10;;
4232;SDS011;2130;48.472;11.934;2023-08-31T08:03:24;2.13;;;1.10;;
4232;SDS011;2130;48.472;11.934;2023-08-31T08:05:55;2.73;;;1.40;;
4232;SDS011;2130;48.472;11.934;2023-08-31T08:08:24;2.90;;;1.40;;
4232;SDS011;2130;48.472;11.934;2023-08-31T08:10:53;2.10;;;1.10;;
4232;SDS011;2130;48.472;11.934;2023-08-31T08:13:22;3.10;;;1.40;;
4232;SDS011;2130;48.472;11.934;2023-08-31T08:15:51;3.30;;;1.33;;
4232;SDS011;2130;48.472;11.934;2023-08-31T08:18:22;2.30;;;1.07;;
4232;SDS011;2130;48.472;11.934;2023-08-31T08:20:51;2.40;;;1.30;;
4232;SDS011;2130;48.472;11.934;2023-08-31T08:23:20;2.87;;;1.30;;
4232;SDS011;2130;48.472;11.934;2023-08-31T08:25:51;1.90;;;1.10;;
4232;SDS011;2130;48.472;11.934;2023-08-31T08:28:20;2.00;;;1.07;;
4232;SDS011;2130;48.472;11.934;2023-08-31T08:30:49;2.37;;;1.10;;
4232;SDS011;2130;48.472;11.934;2023-08-31T08:33:18;2.10;;;0.90;;
4232;SDS011;2130;48.472;11.934;2023-08-31T08:35:48;2.93;;;1.40;;
4232;SDS011;2130;48.472;11.934;2023-08-31T08:38:17;2.10;;;0.93;;
4232;SDS011;2130;48.472;11.934;2023-08-31T08:40:45;3.07;;;1.40;;
4232;SDS011;2130;48.472;11.934;2023-08-31T08:43:14;2.97;;;1.20;;
4232;SDS011;2130;48.472;11.934;2023-08-31T08:45:43;2.10;;;0.97;;
4232;SDS011;2130;48.472;11.934;2023-08-31T08:48:14;2.87;;;1.17;;
4232;SDS011;2130;48.472;11.934;2023-08-31T08:50:43;3.80;;;1.30;;
4232;SDS011;2130;48.472;11.934;2023-08-31T08:53:15;2.67;;;0.97;;
4232;SDS011;2130;48.472;11.934;2023-08-31T08:55:43;2.90;;;1.20;;
4232;SDS011;2130;48.472;11.934;2023-08-31T08:58:22;2.80;;;1.17;;
4232;SDS011;2130;48.472;11.934;2023-08-31T09:00:51;5.53;;;1.33;;
4232;SDS011;2130;48.472;11.934;2023-08-31T09:03:21;3.67;;;1.17;;
4232;SDS011;2130;48.472;11.934;2023-08-31T09:05:51;8.13;;;1.10;;
4232;SDS011;2130;48.472;11.934;2023-08-31T09:08:26;2.20;;;0.90;;
4232;SDS011;2130;48.472;11.934;2023-08-31T09:10:56;3.60;;;1.20;;
4232;SDS011;2130;48.472;11.934;2023-08-31T09:13:26;2.27;;;0.90;;
4232;SDS011;2130;48.472;11.934;2023-08-31T09:15:57;2.20;;;1.00;;
4232;SDS011;2130;48.472;11.934;2023-08-31T09:18:27;2.37;;;1.00;;
4232;SDS011;2130;48.472;11.934;2023-08-31T09:20:57;2.93;;;1.10;;
4232;SDS011;2130;48.472;11.934;2023-08-31T09:23:27;2.53;;;1.10;;
4232;SDS011;2130;48.472;11.934;2023-08-31T09:25:56;3.57;;;1.13;;
4232;SDS011;2130;48.472;11.934;2023-08-31T09:28:26;2.20;;;1.03;;
4232;SDS011;2130;48.472;11.934;2023-08-31T09:31:04;2.27;;;0.90;;
4232;SDS011;2130;48.472;11.934;2023-08-31T09:33:34;2.27;;;1.00;;
4232;SDS011;2130;48.472;11.934;2023-08-31T09:36:05;2.50;;;1.10;;
4232;SDS011;2130;48.472;11.934;2023-08-31T09:38:42;2.50;;;1.13;;
4232;SDS011;2130;48.472;11.934;2023-08-31T09:41:11;2.20;;;0.90;;
4232;SDS011;2130;48.472;11.934;2023-08-31T09:43:40;2.90;;;1.33;;
4232;SDS011;2130;48.472;11.934;2023-08-31T09:46:09;2.73;;;1.30;;
4232;SDS011;2130;48.472;11.934;2023-08-31T09:48:38;2.50;;;1.03;;
4232;SDS011;2130;48.472;11.934;2023-08-31T09:51:09;2.17;;;1.03;;
4232;SDS011;2130;48.472;11.934;2023-08-31T09:53:39;8.93;;;1.53;;
4232;SDS011;2130;48.472;11.934;2023-08-31T09:56:12;2.83;;;1.10;;
4232;SDS011;2130;48.472;11.934;2023-08-31T09:58:42;2.20;;;0.97;;
4232;SDS011;2130;48.472;11.934;2023-08-31T10:01:11;2.77;;;1.27;;
4232;SDS011;2130;48.472;11.934;2023-08-31T10:03:54;3.40;;;1.10;;
4232;SDS011;2130;48.472;11.934;2023-08-31T10:06:25;2.23;;;0.80;;
4232;SDS011;2130;48.472;11.934;2023-08-31T10:08:56;3.10;;;1.33;;
4232;SDS011;2130;48.472;11.934;2023-08-31T10:11:25;2.47;;;1.10;;
4232;SDS011;2130;48.472;11.934;2023-08-31T10:13:55;2.53;;;1.00;;
4232;SDS011;2130;48.472;11.934;2023-08-31T10:16:24;3.00;;;1.33;;
4232;SDS011;2130;48.472;11.934;2023-08-31T10:18:54;2.43;;;1.03;;
4232;SDS011;2130;48.472;11.934;2023-08-31T10:21:23;2.13;;;1.00;;
4232;SDS011;2130;48.472;11.934;2023-08-31T10:23:52;2.20;;;0.93;;
4232;SDS011;2130;48.472;11.934;2023-08-31T10:26:24;2.20;;;0.90;;
4232;SDS011;2130;48.472;11.934;2023-08-31T10:28:53;4.37;;;1.10;;
4232;SDS011;2130;48.472;11.934;2023-08-31T10:31:27;2.07;;;0.90;;
4232;SDS011;2130;48.472;11.934;2023-08-31T10:33:57;2.40;;;1.00;;
4232;SDS011;2130;48.472;11.934;2023-08-31T10:36:37;3.30;;;1.10;;
4232;SDS011;2130;48.472;11.934;2023-08-31T10:39:11;2.70;;;1.10;;
4232;SDS011;2130;48.472;11.934;2023-08-31T10:41:44;4.93;;;1.20;;
4232;SDS011;2130;48.472;11.934;2023-08-31T10:44:21;4.63;;;1.00;;
4232;SDS011;2130;48.472;11.934;2023-08-31T10:46:51;2.70;;;1.17;;
4232;SDS011;2130;48.472;11.934;2023-08-31T10:49:21;3.30;;;1.20;;
4232;SDS011;2130;48.472;11.934;2023-08-31T10:51:54;2.40;;;1.20;;
4232;SDS011;2130;48.472;11.934;2023-08-31T10:54:25;2.30;;;1.10;;
4232;SDS011;2130;48.472;11.934;2023-08-31T10:57:05;2.40;;;1.10;;
4232;SDS011;2130;48.472;11.934;2023-08-31T10:59:44;2.47;;;1.10;;
4232;SDS011;2130;48.472;11.934;2023-08-31T11:02:28;2.63;;;1.03;;
4232;SDS011;2130;48.472;11.934;2023-08-31T11:05:02;2.67;;;1.10;;
4232;SDS011;2130;48.472;11.934;2023-08-31T11:07:35;3.17;;;1.00;;
4232;SDS011;2130;48.472;11.934;2023-08-31T11:10:08;2.30;;;0.90;;
4232;SDS011;2130;48.472;11.934;2023-08-31T11:12:43;2.37;;;1.10;;
4232;SDS011;2130;48.472;11.934;2023-08-31T11:15:13;2.20;;;0.90;;
4232;SDS011;2130;48.472;11.934;2023-08-31T11:17:42;2.33;;;0.80;;
4232;SDS011;2130;48.472;11.934;2023-08-31T11:20:14;4.27;;;1.20;;
4232;SDS011;2130;48.472;11.934;2023-08-31T11:22:45;2.43;;;1.10;;
4232;SDS011;2130;48.472;11.934;2023-08-31T11:25:17;2.90;;;0.90;;
4232;SDS011;2130;48.472;11.934;2023-08-31T11:27:57;2.37;;;0.90;;
4232;SDS011;2130;48.472;11.934;2023-08-31T11:30:26;2.40;;;1.07;;
4232;SDS011;2130;48.472;11.934;2023-08-31T11:33:01;2.40;;;0.80;;
4232;SDS011;2130;48.472;11.934;2023-08-31T11:35:31;2.47;;;0.90;;
4232;SDS011;2130;48.472;11.934;2023-08-31T11:38:04;3.00;;;1.00;;
4232;SDS011;2130;48.472;11.934;2023-08-31T11:40:33;2.37;;;0.90;;
4232;SDS011;2130;48.472;11.934;2023-08-31T11:43:03;2.53;;;1.00;;
4232;SDS011;2130;48.472;11.934;2023-08-31T11:45:34;2.70;;;1.00;;
4232;SDS011;2130;48.472;11.934;2023-08-31T11:48:03;2.00;;;0.80;;
4232;SDS011;2130;48.472;11.934;2023-08-31T11:50:33;3.10;;;0.90;;
4232;SDS011;2130;48.472;11.934;2023-08-31T11:53:03;3.27;;;1.03;;
4232;SDS011;2130;48.472;11.934;2023-08-31T11:55:32;2.60;;;0.97;;
4232;SDS011;2130;48.472;11.934;2023-08-31T11:58:01;3.27;;;1.00;;
4232;SDS011;2130;48.472;11.934;2023-08-31T12:00:32;2.70;;;1.00;;
4232;SDS011;2130;48.472;11.934;2023-08-31T12:03:01;2.73;;;0.97;;
4232;SDS011;2130;48.472;11.934;2023-08-31T12:05:44;2.53;;;0.90;;
4232;SDS011;2130;48.472;11.934;2023-08-31T12:08:13;2.63;;;0.83;;
4232;SDS011;2130;48.472;11.934;2023-08-31T12:10:42;2.90;;;1.00;;
4232;SDS011;2130;48.472;11.934;2023-08-31T12:13:12;2.87;;;1.00;;
4232;SDS011;2130;48.472;11.934;2023-08-31T12:15:43;3.67;;;1.03;;
4232;SDS011;2130;48.472;11.934;2023-08-31T12:18:13;2.70;;;1.00;;
4232;SDS011;2130;48.472;11.934;2023-08-31T12:20:42;2.90;;;1.07;;
4232;SDS011;2130;48.472;11.934;2023-08-31T12:23:12;2.67;;;0.90;;
4232;SDS011;2130;48.472;11.934;2023-08-31T12:25:45;4.67;;;1.20;;
4232;SDS011;2130;48.472;11.934;2023-08-31T12:28:15;3.23;;;0.90;;
4232;SDS011;2130;48.472;11.934;2023-08-31T12:30:47;3.00;;;0.90;;
4232;SDS011;2130;48.472;11.934;2023-08-31T12:33:16;2.30;;;1.00;;
4232;SDS011;2130;48.472;11.934;2023-08-31T12:35:46;2.93;;;1.03;;
4232;SDS011;2130;48.472;11.934;2023-08-31T12:38:15;2.60;;;0.93;;
4232;SDS011;2130;48.472;11.934;2023-08-31T12:40:44;3.57;;;0.90;;
4232;SDS011;2130;48.472;11.934;2023-08-31T12:43:13;2.30;;;0.90;;
4232;SDS011;2130;48.472;11.934;2023-08-31T12:45:44;2.77;;;0.90;;
4232;SDS011;2130;48.472;11.934;2023-08-31T12:48:14;2.30;;;0.80;;
4232;SDS011;2130;48.472;11.934;2023-08-31T12:50:43;2.60;;;1.00;;
4232;SDS011;2130;48.472;11.934;2023-08-31T12:53:12;2.30;;;0.70;;
4232;SDS011;2130;48.472;11.934;2023-08-31T12:55:41;2.70;;;0.90;;
4232;SDS011;2130;48.472;11.934;2023-08-31T12:58:10;2.53;;;1.00;;
4232;SDS011;2130;48.472;11.934;2023-08-31T13:00:40;2.60;;;0.80;;
4232;SDS011;2130;48.472;11.934;2023-08-31T13:03:10;2.70;;;1.00;;
4232;SDS011;2130;48.472;11.934;2023-08-31T13:05:42;3.20;;;1.00;;
4232;SDS011;2130;48.472;11.934;2023-08-31T13:08:57;2.50;;;0.83;;
4232;SDS011;2130;48.472;11.934;2023-08-31T13:11:26;3.27;;;1.00;;
4232;SDS011;2130;48.472;11.934;2023-08-31T13:13:55;2.50;;;0.87;;
4232;SDS011;2130;48.472;11.934;2023-08-31T13:16:23;2.60;;;1.07;;
4232;SDS011;2130;48.472;11.934;2023-08-31T13:18:52;3.30;;;1.10;;
4232;SDS011;2130;48.472;11.934;2023-08-31T13:21:22;2.57;;;0.83;;
4232;SDS011;2130;48.472;11.934;2023-08-31T13:23:51;2.80;;;0.93;;
4232;SDS011;2130;48.472;11.934;2023-08-31T13:26:20;2.30;;;0.80;;
4232;SDS011;2130;48.472;11.934;2023-08-31T13:28:49;3.50;;;1.30;;
4232;SDS011;2130;48.472;11.934;2023-08-31T13:31:17;3.83;;;1.33;;
4232;SDS011;2130;48.472;11.934;2023-08-31T13:33:46;2.43;;;0.83;;
4232;SDS011;2130;48.472;11.934;2023-08-31T13:36:15;3.17;;;1.00;;
4232;SDS011;2130;48.472;11.934;2023-08-31T13:38:45;3.00;;;1.17;;
4232;SDS011;2130;48.472;11.934;2023-08-31T13:41:14;2.87;;;0.90;;
4232;SDS011;2130;48.472;11.934;2023-08-31T13:43:44;3.77;;;1.10;;
4232;SDS011;2130;48.472;11.934;2023-08-31T13:46:13;3.00;;;1.07;;
4232;SDS011;2130;48.472;11.934;2023-08-31T13:48:41;2.40;;;0.90;;
4232;SDS011;2130;48.472;11.934;2023-08-31T13:51:11;2.83;;;1.03;;
4232;SDS011;2130;48.472;11.934;2023-08-31T13:53:39;3.60;;;1.00;;
4232;SDS011;2130;48.472;11.934;2023-08-31T13:56:09;6.17;;;1.13;;
4232;SDS011;2130;48.472;11.934;2023-08-31T13:58:38;2.60;;;0.90;;
4232;SDS011;2130;48.472;11.934;2023-08-31T14:01:08;2.80;;;1.00;;
4232;SDS011;2130;48.472;11.934;2023-08-31T14:03:36;2.40;;;0.90;;
4232;SDS011;2130;48.472;11.934;2023-08-31T14:06:05;3.20;;;1.10;;
4232;SDS011;2130;48.472;11.934;2023-08-31T14:08:35;2.30;;;0.80;;
4232;SDS011;2130;48.472;11.934;2023-08-31T14:11:04;2.40;;;0.90;;
4232;SDS011;2130;48.472;11.934;2023-08-31T14:13:34;3.27;;;1.10;;
4232;SDS011;2130;48.472;11.934;2023-08-31T14:16:03;4.90;;;1.20;;
4232;SDS011;2130;48.472;11.934;2023-08-31T14:18:32;6.63;;;1.17;;
4232;SDS011;2130;48.472;11.934;2023-08-31T14:21:01;2.67;;;1.00;;
4232;SDS011;2130;48.472;11.934;2023-08-31T14:23:30;3.27;;;1.00;;
4232;SDS011;2130;48.472;11.934;2023-08-31T14:26:02;3.60;;;0.90;;
4232;SDS011;2130;48.472;11.934;2023-08-31T14:28:31;3.67;;;1.00;;
4232;SDS011;2130;48.472;11.934;2023-08-31T14:31:04;5.80;;;1.00;;
4232;SDS011;2130;48.472;11.934;2023-08-31T14:33:34;5.10;;;1.30;;
4232;SDS011;2130;48.472;11.934;2023-08-31T14:36:04;2.90;;;0.97;;
4232;SDS011;2130;48.472;11.934;2023-08-31T14:38:33;2.70;;;1.10;;
4232;SDS011;2130;48.472;11.934;2023-08-31T14:41:01;2.50;;;0.90;;
4232;SDS011;2130;48.472;11.934;2023-08-31T14:43:31;2.60;;;0.90;;
4232;SDS011;2130;48.472;11.934;2023-08-31T14:46:00;3.50;;;0.90;;
4232;SDS011;2130;48.472;11.934;2023-08-31T14:48:30;2.70;;;1.00;;
4232;SDS011;2130;48.472;11.934;2023-08-31T14:50:59;2.50;;;0.87;;
4232;SDS011;2130;48.472;11.934;2023-08-31T14:53:28;2.63;;;0.80;;
4232;SDS011;2130;48.472;11.934;2023-08-31T14:55:57;2.83;;;0.80;;
4232;SDS011;2130;48.472;11.934;2023-08-31T14:58:26;2.63;;;1.00;;
4232;SDS011;2130;48.472;11.934;2023-08-31T15:00:55;2.67;;;0.97;;
4232;SDS011;2130;48.472;11.934;2023-08-31T15:03:24;2.80;;;0.90;;
4232;SDS011;2130;48.472;11.934;2023-08-31T15:05:55;2.97;;;0.90;;
4232;SDS011;2130;48.472;11.934;2023-08-31T15:08:35;2.97;;;1.10;;
4232;SDS011;2130;48.472;11.934;2023-08-31T15:11:04;2.33;;;0.90;;
4232;SDS011;2130;48.472;11.934;2023-08-31T15:13:33;3.70;;;1.10;;
4232;SDS011;2130;48.472;11.934;2023-08-31T15:16:02;2.30;;;0.90;;
4232;SDS011;2130;48.472;11.934;2023-08-31T15:18:31;3.70;;;1.20;;